createdAt,value
2019-06-20T00:09:58.702Z,22.7
2019-06-20T00:25:18.160Z,22.6
2019-06-20T00:40:29.044Z,22.7
2019-06-20T00:55:57.320Z,22.6
2019-06-20T01:11:16.424Z,22.5
2019-06-20T01:26:35.809Z,22.4
2019-06-20T01:41:37.686Z,22.1
2019-06-20T01:57:10.316Z,22
2019-06-20T02:12:33.146Z,21.5
2019-06-20T02:27:52.107Z,21.5
2019-06-20T02:43:11.037Z,21.5
2019-06-20T02:58:17.802Z,21
2019-06-20T03:13:48.552Z,21.2
2019-06-20T03:29:07.355Z,21.1
2019-06-20T03:44:26.089Z,21.1
2019-06-20T03:59:44.915Z,21.3
2019-06-20T04:14:57.086Z,21.2
2019-06-20T04:30:22.746Z,21.2
2019-06-20T04:45:41.433Z,21.4
2019-06-20T05:01:00.366Z,21.7
2019-06-20T05:16:08.193Z,21.9
2019-06-20T05:31:38.886Z,22.3
2019-06-20T05:47:11.729Z,22
2019-06-20T06:02:17.438Z,21.6
2019-06-20T06:17:21.507Z,21.3
2019-06-20T06:32:53.890Z,21.1
2019-06-20T06:48:14.340Z,21.1
2019-06-20T07:03:33.049Z,21.2
2019-06-20T07:18:52.283Z,21.6
2019-06-20T07:34:03.264Z,21.5
2019-06-20T07:49:30.031Z,21.1
2019-06-20T08:04:49.001Z,21.4
2019-06-20T08:20:08.111Z,21.3
2019-06-20T08:35:13.946Z,21.4
2019-06-20T08:50:46.465Z,22.3
2019-06-20T09:06:05.834Z,21.9
2019-06-20T09:21:25.180Z,22.1
2019-06-20T09:36:44.654Z,22.5
2019-06-20T09:51:59.341Z,23.1
2019-06-20T10:07:24.627Z,24.7
2019-06-20T10:22:45.796Z,25.7
2019-06-20T10:38:06.715Z,26.6
2019-06-20T10:53:14.540Z,27.4
2019-06-20T11:08:49.530Z,27.7
2019-06-20T11:24:12.642Z,28.1
2019-06-20T11:39:36.074Z,29
2019-06-20T11:54:57.930Z,28.3
2019-06-20T12:10:09.420Z,27.3
2019-06-20T12:25:42.370Z,26.1
2019-06-20T12:41:02.175Z,25.5
2019-06-20T12:56:22.905Z,25.2
2019-06-20T13:11:25.619Z,25.1
2019-06-20T13:26:59.583Z,25.1
2019-06-20T13:42:24.845Z,25.1
2019-06-20T13:57:46.941Z,25.1
2019-06-20T14:13:18.545Z,27
2019-06-20T14:28:28.448Z,26.8
2019-06-20T14:43:49.629Z,26.8
2019-06-20T14:59:13.057Z,27.9
2019-06-20T15:14:36.823Z,28.6
2019-06-20T15:30:01.290Z,29.2
2019-06-20T15:45:08.948Z,29.2
2019-06-20T16:00:44.676Z,29.4
2019-06-20T16:16:16.350Z,29.4
2019-06-20T16:31:41.599Z,29.2
2019-06-20T16:47:07.015Z,29.4
2019-06-20T17:02:32.054Z,29.3
2019-06-20T17:17:40.993Z,29.1
2019-06-20T17:33:16.423Z,28.6
2019-06-20T17:48:43.882Z,28
2019-06-20T18:04:13.544Z,27.7
2019-06-20T18:19:28.288Z,27.2
2019-06-20T18:34:33.086Z,26.2
2019-06-20T18:50:07.178Z,25.6
2019-06-20T19:05:31.276Z,25.3
2019-06-20T19:20:51.718Z,24.8
2019-06-20T19:36:12.047Z,24.5
2019-06-20T19:51:19.825Z,24.2
2019-06-20T20:06:52.402Z,24.3
2019-06-20T20:22:12.479Z,23.7
2019-06-20T20:37:32.236Z,22.4
2019-06-20T20:52:51.108Z,21
2019-06-20T21:08:02.674Z,20.1
2019-06-20T21:23:27.827Z,19.9
2019-06-20T21:38:46.063Z,19.7
2019-06-20T21:54:04.195Z,19.7
2019-06-20T22:09:08.568Z,19.8
2019-06-20T22:24:40.287Z,19.3
2019-06-20T22:39:58.671Z,19.1
2019-06-20T22:55:15.945Z,19
2019-06-20T23:10:33.809Z,19.2
2019-06-20T23:25:45.407Z,19.1
2019-06-20T23:41:09.464Z,19.2
2019-06-20T23:56:27.405Z,19.1
